createdAt,value
2023-03-21T00:01:40.789Z,104.43
2023-03-21T00:04:17.036Z,105.61
2023-03-21T00:06:49.120Z,106.36
2023-03-21T00:09:18.960Z,109.63
2023-03-21T00:11:48.607Z,111.59
2023-03-21T00:14:21.455Z,111.00
2023-03-21T00:16:51.755Z,108.27
2023-03-21T00:19:25.063Z,107.65
2023-03-21T00:22:07.710Z,104.27
2023-03-21T00:24:40.233Z,110.36
2023-03-21T00:27:39.730Z,105.09
2023-03-21T00:29:59.006Z,106.24
2023-03-21T00:32:28.579Z,107.05
2023-03-21T00:35:26.150Z,102.58
2023-03-21T00:37:53.660Z,98.78
2023-03-21T00:40:29.496Z,96.31
2023-03-21T00:43:02.663Z,96.29
2023-03-21T00:45:35.772Z,93.29
2023-03-21T00:48:06.379Z,93.47
2023-03-21T00:50:36.494Z,92.94
2023-03-21T00:53:09.060Z,90.21
2023-03-21T00:55:42.928Z,92.26
2023-03-21T00:58:12.426Z,93.08
2023-03-21T01:00:42.385Z,89.24
2023-03-21T01:03:24.332Z,93.51
2023-03-21T01:06:06.071Z,90.42
2023-03-21T01:08:51.891Z,93.59
2023-03-21T01:11:25.502Z,96.36
2023-03-21T01:14:14.589Z,100.01
2023-03-21T01:16:45.491Z,97.13
2023-03-21T01:19:25.563Z,105.62
2023-03-21T01:21:57.941Z,110.11
2023-03-21T01:24:50.285Z,112.96
2023-03-21T01:27:22.317Z,110.19
2023-03-21T01:29:51.998Z,117.89
2023-03-21T01:32:21.947Z,111.40
2023-03-21T01:34:54.942Z,119.29
2023-03-21T01:37:26.722Z,115.74
2023-03-21T01:39:58.637Z,120.69
2023-03-21T01:42:28.066Z,123.63
2023-03-21T01:45:27.657Z,122.31
2023-03-21T01:47:57.230Z,128.49
2023-03-21T01:50:28.332Z,130.09
2023-03-21T01:52:57.858Z,131.74
2023-03-21T01:55:30.443Z,131.03
2023-03-21T01:58:06.685Z,133.85
2023-03-21T02:00:38.790Z,136.49
2023-03-21T02:03:23.684Z,137.71
2023-03-21T02:06:06.955Z,138.22
2023-03-21T02:08:39.581Z,145.34
2023-03-21T02:11:12.086Z,145.99
2023-03-21T02:13:47.594Z,144.69
2023-03-21T02:16:33.850Z,149.34
2023-03-21T02:19:31.893Z,147.63
2023-03-21T02:22:35.087Z,151.38
2023-03-21T02:25:34.234Z,150.71
2023-03-21T02:28:16.124Z,149.89
2023-03-21T02:31:24.621Z,151.46
2023-03-21T02:34:32.109Z,151.13
2023-03-21T02:37:13.807Z,156.57
2023-03-21T02:39:54.598Z,155.96
2023-03-21T02:42:35.960Z,154.32
2023-03-21T02:45:16.403Z,151.52
2023-03-21T02:47:52.860Z,155.14
2023-03-21T02:50:30.480Z,154.53
2023-03-21T02:53:08.264Z,156.13
2023-03-21T02:55:45.086Z,151.86
2023-03-21T02:58:19.908Z,156.64
2023-03-21T03:00:51.259Z,153.81
2023-03-21T03:03:33.022Z,155.82
2023-03-21T03:06:09.668Z,151.17
2023-03-21T03:09:02.764Z,147.24
2023-03-21T03:11:37.675Z,150.87
2023-03-21T03:15:00.314Z,146.96
2023-03-21T03:17:48.288Z,139.09
2023-03-21T03:20:31.682Z,143.61
2023-03-21T03:23:14.287Z,141.55
2023-03-21T03:25:57.372Z,137.92
2023-03-21T03:28:32.256Z,137.14
2023-03-21T03:31:09.530Z,137.56
2023-03-21T03:33:44.991Z,132.25
2023-03-21T03:36:30.884Z,129.91
2023-03-21T03:39:04.952Z,131.40
2023-03-21T03:42:06.010Z,133.14
2023-03-21T03:44:44.037Z,134.00
2023-03-21T03:47:31.981Z,131.21
2023-03-21T03:50:09.195Z,132.83
2023-03-21T03:52:55.278Z,133.57
2023-03-21T03:55:34.629Z,130.48
2023-03-21T03:58:19.632Z,136.00
2023-03-21T04:00:51.961Z,131.23
2023-03-21T04:03:22.172Z,131.20
2023-03-21T04:05:51.912Z,138.82
2023-03-21T04:08:23.359Z,137.01
2023-03-21T04:10:52.747Z,137.20
2023-03-21T04:13:25.929Z,132.21
2023-03-21T04:16:26.064Z,135.84
2023-03-21T04:18:55.598Z,135.64
2023-03-21T04:21:25.900Z,129.89
2023-03-21T04:24:02.879Z,139.95
2023-03-21T04:26:33.779Z,134.14
2023-03-21T04:29:07.100Z,141.93
2023-03-21T04:31:36.996Z,145.31
2023-03-21T04:34:10.119Z,142.03
2023-03-21T04:36:44.926Z,145.42
2023-03-21T04:39:16.328Z,144.39
2023-03-21T04:41:47.357Z,142.36
2023-03-21T04:44:30.790Z,135.75
2023-03-21T04:47:00.080Z,139.35
2023-03-21T04:49:29.749Z,143.84
2023-03-21T04:51:59.455Z,141.23
2023-03-21T04:54:29.365Z,141.59
2023-03-21T04:56:59.097Z,139.54
2023-03-21T04:59:31.922Z,140.76
2023-03-21T05:02:01.471Z,140.26
2023-03-21T05:04:41.299Z,139.31
2023-03-21T05:07:10.937Z,135.86
2023-03-21T05:09:40.571Z,141.31
2023-03-21T05:12:10.283Z,138.25
2023-03-21T05:14:42.734Z,133.59
2023-03-21T05:17:15.523Z,133.12
2023-03-21T05:19:46.876Z,134.37
2023-03-21T05:22:19.289Z,126.85
2023-03-21T05:25:07.986Z,120.73
2023-03-21T05:27:38.069Z,124.39
2023-03-21T05:30:13.404Z,121.89
2023-03-21T05:32:42.795Z,119.99
2023-03-21T05:35:13.716Z,115.77
2023-03-21T05:37:43.160Z,116.66
2023-03-21T05:40:13.829Z,116.08
2023-03-21T05:42:43.292Z,115.86
2023-03-21T05:45:43.686Z,106.34
2023-03-21T05:48:14.537Z,109.09
2023-03-21T05:50:44.664Z,107.42
2023-03-21T05:53:14.079Z,109.36
2023-03-21T05:55:46.843Z,105.44
2023-03-21T05:58:16.199Z,104.34
2023-03-21T06:00:48.377Z,101.07
2023-03-21T06:03:17.778Z,103.62
2023-03-21T06:05:49.442Z,99.61
2023-03-21T06:08:18.845Z,97.61
2023-03-21T06:10:48.386Z,95.61
2023-03-21T06:13:18.013Z,99.40
2023-03-21T06:16:05.473Z,94.70
2023-03-21T06:18:34.782Z,91.90
2023-03-21T06:21:04.613Z,93.95
2023-03-21T06:23:34.145Z,92.55
2023-03-21T06:26:03.610Z,95.63
2023-03-21T06:28:33.061Z,93.17
2023-03-21T06:31:05.427Z,92.35
2023-03-21T06:33:34.790Z,93.49
2023-03-21T06:36:04.523Z,90.88
2023-03-21T06:38:38.110Z,89.79
2023-03-21T06:41:08.540Z,87.95
2023-03-21T06:43:37.973Z,89.13
2023-03-21T06:46:10.450Z,89.84
2023-03-21T06:48:44.630Z,88.13
2023-03-21T06:51:14.609Z,86.28
2023-03-21T06:53:44.827Z,86.47
2023-03-21T06:56:15.838Z,82.96
2023-03-21T06:58:45.133Z,85.41
2023-03-21T07:01:17.470Z,86.95
2023-03-21T07:03:47.569Z,84.40
2023-03-21T07:06:17.154Z,87.94
2023-03-21T07:08:48.176Z,86.14
2023-03-21T07:11:17.477Z,84.05
2023-03-21T07:13:54.602Z,82.09
2023-03-21T07:16:26.855Z,85.15
2023-03-21T07:18:57.791Z,85.09
2023-03-21T07:21:27.181Z,84.10
2023-03-21T07:24:00.034Z,81.34
2023-03-21T07:26:29.667Z,82.66
2023-03-21T07:28:59.245Z,82.72
2023-03-21T07:31:31.565Z,79.84
2023-03-21T07:34:01.334Z,79.90
2023-03-21T07:36:30.763Z,79.31
2023-03-21T07:39:00.292Z,77.69
2023-03-21T07:41:29.893Z,80.92
2023-03-21T07:44:01.503Z,78.96
2023-03-21T07:46:34.839Z,76.70
2023-03-21T07:49:09.501Z,79.52
2023-03-21T07:51:39.144Z,77.83
2023-03-21T07:54:19.412Z,78.71
2023-03-21T07:56:48.905Z,73.19
2023-03-21T07:59:18.479Z,71.50
2023-03-21T08:01:51.173Z,74.96
2023-03-21T08:04:32.215Z,71.99
2023-03-21T08:07:01.700Z,73.27
2023-03-21T08:09:31.704Z,76.50
2023-03-21T08:12:01.303Z,76.16
2023-03-21T08:14:34.138Z,77.46
2023-03-21T08:17:07.296Z,77.09
2023-03-21T08:19:37.593Z,75.03
2023-03-21T08:22:06.996Z,75.09
2023-03-21T08:24:36.777Z,74.34
2023-03-21T08:27:09.037Z,74.35
2023-03-21T08:29:42.469Z,73.85
2023-03-21T08:32:15.892Z,74.31
2023-03-21T08:34:52.586Z,73.08
2023-03-21T08:37:21.987Z,72.36
2023-03-21T08:39:52.046Z,73.26
2023-03-21T08:42:23.266Z,72.70
2023-03-21T08:44:56.814Z,72.43
2023-03-21T08:47:32.870Z,69.44
2023-03-21T08:50:04.146Z,69.74
2023-03-21T08:52:36.033Z,68.42
2023-03-21T08:55:07.631Z,70.07
2023-03-21T08:57:37.123Z,67.22
2023-03-21T09:00:18.580Z,66.20
2023-03-21T09:02:56.295Z,64.74
2023-03-21T09:05:28.655Z,64.89
2023-03-21T09:08:01.789Z,62.95
2023-03-21T09:10:34.025Z,64.13
2023-03-21T09:13:03.482Z,64.55
2023-03-21T09:15:36.851Z,65.45
2023-03-21T09:18:22.275Z,61.96
2023-03-21T09:20:56.743Z,62.11
2023-03-21T09:23:26.305Z,62.76
2023-03-21T09:26:00.701Z,61.04
2023-03-21T09:28:32.777Z,59.11
2023-03-21T09:31:07.619Z,58.86
2023-03-21T09:33:43.336Z,60.04
2023-03-21T09:36:19.060Z,57.55
2023-03-21T09:38:50.306Z,59.29
2023-03-21T09:41:42.907Z,61.40
2023-03-21T09:44:41.317Z,60.64
2023-03-21T09:47:21.824Z,61.77
2023-03-21T09:50:13.631Z,64.41
2023-03-21T09:52:49.878Z,65.12
2023-03-21T09:55:26.506Z,68.25
2023-03-21T09:58:10.646Z,68.46
2023-03-21T10:00:46.924Z,67.21
2023-03-21T10:03:26.524Z,67.75
2023-03-21T10:06:07.525Z,69.59
2023-03-21T10:08:41.990Z,74.09
2023-03-21T10:11:18.300Z,74.05
2023-03-21T10:13:56.238Z,72.24
2023-03-21T10:16:35.589Z,69.13
2023-03-21T10:19:11.755Z,68.04
2023-03-21T10:22:01.153Z,67.73
2023-03-21T10:24:36.359Z,66.95
2023-03-21T10:27:13.427Z,68.91
2023-03-21T10:29:49.050Z,69.71
2023-03-21T10:32:23.104Z,66.83
2023-03-21T10:34:59.777Z,66.64
2023-03-21T10:37:32.748Z,64.25
2023-03-21T10:40:02.204Z,66.85
2023-03-21T10:42:36.916Z,64.51
2023-03-21T10:45:18.237Z,67.08
2023-03-21T10:47:52.185Z,68.27
2023-03-21T10:50:26.973Z,64.47
2023-03-21T10:53:04.724Z,62.60
2023-03-21T10:55:55.463Z,66.05
2023-03-21T10:58:30.212Z,65.91
2023-03-21T11:01:04.177Z,62.69
2023-03-21T11:03:38.534Z,63.22
2023-03-21T11:06:13.684Z,63.94
2023-03-21T11:08:49.793Z,64.81
2023-03-21T11:11:28.829Z,61.31
2023-03-21T11:14:07.339Z,62.56
2023-03-21T11:16:42.936Z,61.24
2023-03-21T11:19:18.030Z,61.29
2023-03-21T11:21:47.822Z,60.54
2023-03-21T11:24:31.494Z,61.20
2023-03-21T11:27:11.967Z,60.56
2023-03-21T11:29:49.184Z,62.35
2023-03-21T11:32:30.218Z,61.99
2023-03-21T11:35:09.076Z,59.74
2023-03-21T11:37:46.634Z,62.31
2023-03-21T11:40:28.923Z,58.21
2023-03-21T11:43:00.692Z,61.41
2023-03-21T11:45:36.185Z,61.81
2023-03-21T11:48:16.015Z,61.19
2023-03-21T11:50:57.018Z,60.49
2023-03-21T11:53:42.823Z,60.41
2023-03-21T11:56:26.665Z,58.53
2023-03-21T11:59:16.471Z,59.21
2023-03-21T12:02:04.935Z,59.07
2023-03-21T12:04:55.764Z,60.11
2023-03-21T12:07:52.941Z,60.34
2023-03-21T12:10:48.262Z,61.06
2023-03-21T12:13:36.997Z,59.21
2023-03-21T12:16:30.790Z,59.21
2023-03-21T12:19:22.384Z,60.33
2023-03-21T12:22:04.357Z,62.11
2023-03-21T12:24:56.259Z,58.04
2023-03-21T12:27:38.779Z,60.55
2023-03-21T12:30:33.425Z,60.51
2023-03-21T12:33:19.927Z,58.59
2023-03-21T12:36:04.712Z,59.13
2023-03-21T12:38:47.109Z,62.87
2023-03-21T12:41:29.478Z,60.33
2023-03-21T12:44:06.898Z,60.89
2023-03-21T12:46:46.661Z,61.56
2023-03-21T12:49:25.675Z,60.64
2023-03-21T12:52:03.986Z,67.66
2023-03-21T12:54:40.588Z,74.94
2023-03-21T12:57:18.636Z,77.34
2023-03-21T12:59:55.597Z,78.56
2023-03-21T13:02:32.878Z,73.61
2023-03-21T13:05:18.126Z,72.43
2023-03-21T13:07:56.532Z,77.11
2023-03-21T13:10:26.097Z,79.78
2023-03-21T13:13:10.020Z,78.93
2023-03-21T13:15:58.517Z,78.60
2023-03-21T13:19:00.081Z,79.74
2023-03-21T13:21:47.671Z,85.24
2023-03-21T13:24:41.494Z,88.78
2023-03-21T13:27:24.847Z,88.90
2023-03-21T13:30:02.302Z,90.36
2023-03-21T13:32:35.408Z,92.47
2023-03-21T13:35:19.358Z,89.24
2023-03-21T13:37:55.780Z,90.34
2023-03-21T13:40:28.871Z,91.06
2023-03-21T13:43:00.687Z,90.62
2023-03-21T13:45:45.788Z,88.38
2023-03-21T13:48:31.148Z,88.09
2023-03-21T13:51:06.816Z,89.29
2023-03-21T13:53:42.628Z,87.41
2023-03-21T13:56:25.710Z,85.99
2023-03-21T13:59:01.612Z,83.41
2023-03-21T14:01:42.688Z,84.26
2023-03-21T14:04:32.204Z,81.36
2023-03-21T14:07:22.652Z,80.75
2023-03-21T14:09:56.714Z,80.01
2023-03-21T14:12:31.656Z,79.75
2023-03-21T14:15:16.297Z,78.48
2023-03-21T14:17:53.055Z,79.23
2023-03-21T14:20:26.754Z,82.01
2023-03-21T14:23:06.833Z,82.53
2023-03-21T14:25:47.775Z,85.22
2023-03-21T14:28:21.527Z,84.09
2023-03-21T14:30:55.928Z,80.95
2023-03-21T14:33:30.350Z,82.93
2023-03-21T14:36:17.599Z,84.84
2023-03-21T14:38:58.013Z,85.16
2023-03-21T14:41:30.234Z,82.03
2023-03-21T14:44:15.906Z,77.73
2023-03-21T14:46:46.693Z,82.38
2023-03-21T14:49:26.283Z,79.34
2023-03-21T14:51:59.182Z,80.11
2023-03-21T14:54:38.475Z,80.57
2023-03-21T14:57:14.559Z,82.01
2023-03-21T14:59:44.416Z,80.51
2023-03-21T15:02:20.256Z,80.77
2023-03-21T15:04:54.323Z,79.36
2023-03-21T15:07:29.065Z,82.16
2023-03-21T15:10:08.090Z,80.43
2023-03-21T15:12:37.683Z,78.28
2023-03-21T15:15:21.257Z,81.84
2023-03-21T15:17:57.497Z,82.21
2023-03-21T15:20:33.654Z,83.09
2023-03-21T15:23:09.981Z,82.64
2023-03-21T15:25:47.678Z,80.29
2023-03-21T15:28:20.507Z,81.51
2023-03-21T15:30:55.158Z,83.16
2023-03-21T15:33:29.215Z,80.99
2023-03-21T15:36:13.052Z,87.96
2023-03-21T15:38:45.872Z,86.00
2023-03-21T15:41:29.330Z,85.21
2023-03-21T15:44:17.188Z,89.38
2023-03-21T15:46:52.007Z,85.41
2023-03-21T15:49:27.481Z,83.32
2023-03-21T15:52:02.751Z,84.70
2023-03-21T15:54:49.277Z,83.16
2023-03-21T15:57:33.018Z,82.11
2023-03-21T16:00:20.116Z,84.74
2023-03-21T16:02:54.145Z,81.91
2023-03-21T16:05:30.787Z,80.46
2023-03-21T16:08:03.867Z,80.31
2023-03-21T16:10:38.856Z,81.59
2023-03-21T16:13:14.165Z,82.24
2023-03-21T16:15:47.151Z,81.98
2023-03-21T16:18:17.379Z,86.16
2023-03-21T16:20:50.380Z,86.79
2023-03-21T16:23:19.921Z,84.49
2023-03-21T16:25:59.997Z,82.49
2023-03-21T16:28:32.207Z,84.92
2023-03-21T16:31:04.946Z,83.82
2023-03-21T16:33:37.717Z,85.26
2023-03-21T16:36:10.408Z,83.75
2023-03-21T16:38:39.813Z,86.41
2023-03-21T16:41:14.141Z,86.44
2023-03-21T16:43:50.918Z,79.61
2023-03-21T16:46:22.874Z,78.44
2023-03-21T16:48:55.516Z,75.69
2023-03-21T16:51:33.486Z,72.62
2023-03-21T16:54:06.626Z,73.76
2023-03-21T16:56:42.761Z,69.99
2023-03-21T16:59:20.724Z,66.78
2023-03-21T17:01:50.508Z,62.60
2023-03-21T17:04:25.040Z,62.13
2023-03-21T17:06:56.217Z,58.39
2023-03-21T17:09:28.162Z,59.50
2023-03-21T17:11:57.564Z,60.98
2023-03-21T17:14:32.839Z,58.80
2023-03-21T17:17:04.724Z,60.05
2023-03-21T17:19:34.163Z,59.21
2023-03-21T17:22:03.782Z,63.49
2023-03-21T17:24:45.270Z,66.71
2023-03-21T17:27:19.817Z,66.03
2023-03-21T17:29:54.500Z,65.81
2023-03-21T17:32:23.819Z,61.45
2023-03-21T17:34:56.893Z,63.82
2023-03-21T17:37:26.537Z,64.50
2023-03-21T17:39:56.041Z,68.54
2023-03-21T17:42:31.961Z,66.21
2023-03-21T17:45:21.186Z,65.63
2023-03-21T17:47:52.078Z,64.96
2023-03-21T17:50:24.853Z,62.74
2023-03-21T17:52:57.478Z,61.95
2023-03-21T17:55:28.408Z,62.42
2023-03-21T17:58:05.832Z,62.65
2023-03-21T18:00:38.185Z,64.36
2023-03-21T18:03:09.706Z,61.79
2023-03-21T18:05:39.003Z,59.20
2023-03-21T18:08:11.389Z,64.02
2023-03-21T18:10:46.216Z,62.20
2023-03-21T18:13:15.896Z,65.14
2023-03-21T18:15:52.869Z,60.99
2023-03-21T18:18:22.526Z,62.84
2023-03-21T18:20:54.251Z,61.41
2023-03-21T18:23:30.071Z,60.32
2023-03-21T18:26:02.401Z,58.53
2023-03-21T18:28:39.609Z,60.08
2023-03-21T18:31:20.284Z,60.99
2023-03-21T18:33:51.524Z,64.21
2023-03-21T18:36:28.575Z,62.63
2023-03-21T18:39:00.980Z,60.89
2023-03-21T18:41:30.792Z,63.76
2023-03-21T18:44:13.714Z,61.40
2023-03-21T18:46:50.837Z,66.27
2023-03-21T18:50:02.073Z,68.94
2023-03-21T18:52:10.647Z,67.41
2023-03-21T18:54:43.016Z,70.21
2023-03-21T18:57:35.775Z,71.04
2023-03-21T19:00:17.241Z,69.95
2023-03-21T19:03:13.000Z,70.16
2023-03-21T19:05:47.255Z,69.09
2023-03-21T19:08:16.870Z,72.41
2023-03-21T19:10:51.231Z,73.64
2023-03-21T19:13:20.826Z,71.78
2023-03-21T19:15:50.451Z,73.07
2023-03-21T19:18:53.930Z,73.24
2023-03-21T19:21:14.509Z,75.29
2023-03-21T19:24:22.837Z,74.36
2023-03-21T19:26:48.694Z,75.58
2023-03-21T19:29:22.182Z,79.67
2023-03-21T19:31:51.867Z,78.71
2023-03-21T19:34:25.156Z,82.44
2023-03-21T19:36:57.184Z,82.44
2023-03-21T19:39:30.843Z,78.53
2023-03-21T19:42:15.082Z,81.55
2023-03-21T19:44:47.067Z,85.94
2023-03-21T19:47:16.532Z,81.25
2023-03-21T19:52:45.816Z,84.69
2023-03-21T19:55:16.483Z,85.76
2023-03-21T19:57:48.597Z,86.30
2023-03-21T20:00:20.178Z,79.44
2023-03-21T20:02:49.802Z,82.09
2023-03-21T20:05:22.387Z,83.09
2023-03-21T20:07:57.350Z,84.44
2023-03-21T20:10:27.854Z,82.96
2023-03-21T20:13:00.423Z,81.34
2023-03-21T20:15:30.781Z,79.99
2023-03-21T20:18:00.404Z,83.11
2023-03-21T20:20:34.721Z,83.40
2023-03-21T20:23:11.230Z,79.86
2023-03-21T20:25:56.151Z,82.66
2023-03-21T20:28:29.164Z,85.27
2023-03-21T20:31:00.598Z,79.86
2023-03-21T20:33:30.813Z,79.92
2023-03-21T20:36:38.529Z,83.64
2023-03-21T20:39:02.055Z,86.16
2023-03-21T20:41:31.806Z,83.27
2023-03-21T20:46:51.123Z,82.66
2023-03-21T20:49:23.121Z,85.78
2023-03-21T20:54:45.819Z,81.88
2023-03-21T20:57:18.358Z,77.27
2023-03-21T20:59:51.197Z,76.58
2023-03-21T21:02:24.507Z,73.69
2023-03-21T21:05:32.999Z,73.55
2023-03-21T21:08:05.956Z,70.08
2023-03-21T21:10:52.410Z,67.37
2023-03-21T21:13:24.911Z,62.71
2023-03-21T21:15:57.687Z,62.05
2023-03-21T21:18:30.491Z,59.31
2023-03-21T21:21:06.035Z,56.71
2023-03-21T21:23:40.191Z,56.99
2023-03-21T21:26:13.175Z,57.87
2023-03-21T21:28:43.467Z,53.86
2023-03-21T21:31:17.898Z,55.82
2023-03-21T21:33:50.266Z,56.66
2023-03-21T21:36:19.858Z,58.47
2023-03-21T21:38:53.167Z,60.41
2023-03-21T21:41:24.549Z,62.29
2023-03-21T21:44:03.216Z,63.78
2023-03-21T21:46:32.941Z,63.11
2023-03-21T21:49:02.495Z,65.31
2023-03-21T21:51:34.182Z,69.45
2023-03-21T21:54:10.117Z,71.96
2023-03-21T21:56:39.685Z,71.70
2023-03-21T21:59:09.287Z,68.19
2023-03-21T22:01:38.877Z,64.63
2023-03-21T22:04:15.714Z,61.50
2023-03-21T22:06:47.628Z,61.49
2023-03-21T22:09:20.047Z,59.31
2023-03-21T22:11:49.497Z,58.36
2023-03-21T22:14:19.270Z,57.95
2023-03-21T22:16:48.860Z,56.20
2023-03-21T22:19:21.577Z,54.12
2023-03-21T22:21:51.555Z,49.84
2023-03-21T22:24:23.623Z,46.98
2023-03-21T22:26:59.524Z,44.91
2023-03-21T22:29:30.613Z,44.95
2023-03-21T22:32:00.060Z,39.93
2023-03-21T22:34:29.811Z,41.36
2023-03-21T22:36:59.877Z,38.49
2023-03-21T22:39:35.237Z,35.46
2023-03-21T22:42:05.943Z,34.37
2023-03-21T22:44:35.860Z,35.00
2023-03-21T22:47:08.024Z,33.85
2023-03-21T22:49:37.749Z,34.07
2023-03-21T22:52:08.301Z,32.01
2023-03-21T22:54:40.602Z,30.71
2023-03-21T22:57:10.045Z,28.74
2023-03-21T22:59:39.645Z,29.77
2023-03-21T23:02:09.668Z,28.56
2023-03-21T23:04:42.244Z,26.13
2023-03-21T23:07:11.894Z,27.21
2023-03-21T23:09:44.473Z,26.07
2023-03-21T23:12:14.954Z,24.79
2023-03-21T23:14:46.474Z,25.71
2023-03-21T23:17:16.621Z,23.77
2023-03-21T23:19:46.438Z,23.21
2023-03-21T23:22:16.073Z,22.37
2023-03-21T23:24:51.094Z,21.69
2023-03-21T23:27:20.427Z,21.74
2023-03-21T23:29:49.997Z,20.48
2023-03-21T23:32:19.471Z,19.11
2023-03-21T23:34:56.081Z,19.65
2023-03-21T23:37:25.416Z,19.86
2023-03-21T23:39:57.876Z,18.24
2023-03-21T23:42:29.421Z,17.66
2023-03-21T23:44:58.953Z,17.99
2023-03-21T23:47:28.928Z,16.68
2023-03-21T23:49:58.440Z,17.61
2023-03-21T23:52:27.864Z,17.12
2023-03-21T23:55:00.327Z,17.34
2023-03-21T23:57:30.461Z,16.83
